createdAt,value
2023-05-05T00:01:06.251Z,103294.40
2023-05-05T00:03:35.589Z,103295.00
2023-05-05T00:06:09.293Z,103293.20
2023-05-05T00:08:37.083Z,103289.60
2023-05-05T00:11:06.173Z,103291.60
2023-05-05T00:13:34.869Z,103298.40
2023-05-05T00:16:03.106Z,103295.20
2023-05-05T00:18:34.011Z,103297.20
2023-05-05T00:21:04.653Z,103299.20
2023-05-05T00:23:32.951Z,103301.40
2023-05-05T00:26:02.206Z,103298.00
2023-05-05T00:28:30.804Z,103303.80
2023-05-05T00:30:59.204Z,103302.00
2023-05-05T00:33:28.050Z,103306.00
2023-05-05T00:35:57.972Z,103297.20
2023-05-05T00:38:26.559Z,103300.40
2023-05-05T00:40:54.986Z,103298.60
2023-05-05T00:43:22.796Z,103303.40
2023-05-05T00:46:02.366Z,103307.20
2023-05-05T00:48:31.693Z,103297.00
2023-05-05T00:51:00.341Z,103303.80
2023-05-05T00:53:29.027Z,103300.00
2023-05-05T00:55:57.468Z,103299.00
2023-05-05T00:58:25.654Z,103304.20
2023-05-05T01:00:55.924Z,103306.00
2023-05-05T01:03:25.862Z,103303.40
2023-05-05T01:06:37.237Z,103310.80
2023-05-05T01:10:18.912Z,103317.20
2023-05-05T01:13:05.609Z,103312.20
2023-05-05T01:15:42.136Z,103315.20
2023-05-05T01:18:28.864Z,103313.40
2023-05-05T01:21:38.599Z,103312.80
2023-05-05T01:24:49.056Z,103316.00
2023-05-05T01:27:55.883Z,103318.60
2023-05-05T01:31:08.086Z,103325.60
2023-05-05T01:33:49.664Z,103323.40
2023-05-05T01:36:36.281Z,103324.80
2023-05-05T01:39:12.080Z,103323.20
2023-05-05T01:41:50.016Z,103322.60
2023-05-05T01:44:20.595Z,103325.40
2023-05-05T01:46:52.199Z,103326.60
2023-05-05T01:49:24.543Z,103328.80
2023-05-05T01:51:54.346Z,103329.00
2023-05-05T01:54:24.938Z,103331.20
2023-05-05T01:56:57.380Z,103330.20
2023-05-05T01:59:29.275Z,103331.20
2023-05-05T02:02:04.917Z,103331.40
2023-05-05T02:04:39.338Z,103340.80
2023-05-05T02:07:09.755Z,103338.80
2023-05-05T02:09:39.383Z,103346.40
2023-05-05T02:12:10.987Z,103341.20
2023-05-05T02:14:44.088Z,103344.00
2023-05-05T02:17:16.026Z,103342.40
2023-05-05T02:19:48.562Z,103344.80
2023-05-05T02:22:19.478Z,103344.40
2023-05-05T02:24:52.122Z,103345.20
2023-05-05T02:27:24.669Z,103349.40
2023-05-05T02:29:59.414Z,103352.60
2023-05-05T02:32:39.615Z,103348.40
2023-05-05T02:35:35.485Z,103351.00
2023-05-05T02:38:06.186Z,103353.20
2023-05-05T02:40:37.623Z,103348.20
2023-05-05T02:43:11.757Z,103352.80
2023-05-05T02:45:39.853Z,103357.40
2023-05-05T02:48:10.736Z,103355.80
2023-05-05T02:50:40.777Z,103356.40
2023-05-05T02:53:14.023Z,103357.20
2023-05-05T02:55:53.440Z,103355.80
2023-05-05T02:58:46.748Z,103362.40
2023-05-05T03:01:48.480Z,103358.40
2023-05-05T03:04:28.642Z,103364.20
2023-05-05T03:07:05.880Z,103364.40
2023-05-05T03:09:43.548Z,103362.60
2023-05-05T03:12:21.247Z,103364.60
2023-05-05T03:14:54.442Z,103367.60
2023-05-05T03:17:25.237Z,103364.20
2023-05-05T03:19:53.717Z,103363.60
2023-05-05T03:22:22.234Z,103363.80
2023-05-05T03:24:51.720Z,103360.60
2023-05-05T03:27:20.751Z,103362.40
2023-05-05T03:29:49.456Z,103366.00
2023-05-05T03:32:18.300Z,103367.80
2023-05-05T03:34:49.049Z,103372.20
2023-05-05T03:37:16.888Z,103375.80
2023-05-05T03:39:45.221Z,103376.20
2023-05-05T03:42:13.234Z,103378.00
2023-05-05T03:44:44.946Z,103377.80
2023-05-05T03:47:13.494Z,103377.20
2023-05-05T03:49:42.443Z,103374.80
2023-05-05T03:52:12.192Z,103387.60
2023-05-05T03:54:43.518Z,103389.60
2023-05-05T03:57:11.429Z,103384.00
2023-05-05T03:59:39.340Z,103389.40
2023-05-05T04:02:08.756Z,103393.00
2023-05-05T04:04:36.714Z,103393.00
2023-05-05T04:07:05.965Z,103396.60
2023-05-05T04:09:33.838Z,103396.20
2023-05-05T04:12:03.237Z,103395.80
2023-05-05T04:14:32.488Z,103396.80
2023-05-05T04:17:00.398Z,103406.20
2023-05-05T04:19:28.846Z,103404.80
2023-05-05T04:21:56.712Z,103406.80
2023-05-05T04:24:26.561Z,103407.20
2023-05-05T04:26:55.881Z,103408.80
2023-05-05T04:29:27.588Z,103412.00
2023-05-05T04:31:59.405Z,103413.40
2023-05-05T04:34:31.653Z,103416.60
2023-05-05T04:37:05.938Z,103418.20
2023-05-05T04:39:36.831Z,103418.80
2023-05-05T04:42:05.093Z,103416.00
2023-05-05T04:44:35.787Z,103424.40
2023-05-05T04:47:06.937Z,103421.60
2023-05-05T04:49:38.770Z,103419.00
2023-05-05T04:52:07.298Z,103420.20
2023-05-05T04:54:39.253Z,103425.00
2023-05-05T04:57:07.551Z,103425.80
2023-05-05T04:59:37.828Z,103429.00
2023-05-05T05:02:06.561Z,103427.40
2023-05-05T05:04:34.815Z,103427.80
2023-05-05T05:07:03.158Z,103428.00
2023-05-05T05:09:31.553Z,103425.60
2023-05-05T05:12:03.506Z,103429.80
2023-05-05T05:14:41.283Z,103426.80
2023-05-05T05:17:09.602Z,103424.80
2023-05-05T05:19:37.418Z,103424.40
2023-05-05T05:22:10.130Z,103425.40
2023-05-05T05:24:38.598Z,103428.60
2023-05-05T05:27:10.298Z,103426.20
2023-05-05T05:29:42.337Z,103429.20
2023-05-05T05:32:11.004Z,103423.40
2023-05-05T05:34:40.638Z,103429.20
2023-05-05T05:37:08.464Z,103423.40
2023-05-05T05:39:36.672Z,103424.80
2023-05-05T05:42:04.766Z,103427.80
2023-05-05T05:44:34.490Z,103425.60
2023-05-05T05:47:02.317Z,103429.40
2023-05-05T05:49:30.510Z,103435.40
2023-05-05T05:51:59.305Z,103428.40
2023-05-05T05:54:28.548Z,103429.60
2023-05-05T05:56:57.853Z,103429.20
2023-05-05T05:59:28.413Z,103429.60
2023-05-05T06:01:56.784Z,103429.40
2023-05-05T06:04:32.805Z,103428.20
2023-05-05T06:07:00.875Z,103431.60
2023-05-05T06:09:30.426Z,103427.60
2023-05-05T06:12:03.118Z,103426.60
2023-05-05T06:14:31.956Z,103431.40
2023-05-05T06:16:59.981Z,103423.40
2023-05-05T06:19:28.931Z,103421.60
2023-05-05T06:21:59.142Z,103425.80
2023-05-05T06:24:27.235Z,103422.40
2023-05-05T06:26:55.488Z,103421.60
2023-05-05T06:29:28.990Z,103416.60
2023-05-05T06:31:57.455Z,103420.80
2023-05-05T06:34:25.405Z,103421.40
2023-05-05T06:36:54.190Z,103418.80
2023-05-05T06:39:22.716Z,103418.60
2023-05-05T06:41:52.012Z,103420.00
2023-05-05T06:44:21.267Z,103421.60
2023-05-05T06:46:49.314Z,103425.40
2023-05-05T06:49:17.569Z,103427.20
2023-05-05T06:51:45.574Z,103426.60
2023-05-05T06:54:14.839Z,103429.40
2023-05-05T06:56:42.898Z,103420.60
2023-05-05T06:59:12.205Z,103429.20
2023-05-05T07:01:40.866Z,103424.20
2023-05-05T07:04:08.747Z,103428.60
2023-05-05T07:06:36.572Z,103421.80
2023-05-05T07:09:06.157Z,103429.60
2023-05-05T07:11:33.973Z,103428.40
2023-05-05T07:14:02.978Z,103427.00
2023-05-05T07:16:32.073Z,103427.60
2023-05-05T07:19:01.077Z,103424.60
2023-05-05T07:21:31.561Z,103421.60
2023-05-05T07:24:03.382Z,103422.80
2023-05-05T07:26:32.543Z,103417.20
2023-05-05T07:29:02.808Z,103417.20
2023-05-05T07:31:31.902Z,103416.40
2023-05-05T07:34:00.070Z,103417.60
2023-05-05T07:36:30.322Z,103416.20
2023-05-05T07:38:59.021Z,103415.80
2023-05-05T07:41:26.873Z,103416.80
2023-05-05T07:43:55.899Z,103417.80
2023-05-05T07:46:24.365Z,103416.80
2023-05-05T07:48:52.717Z,103418.60
2023-05-05T07:51:22.117Z,103413.60
2023-05-05T07:53:52.441Z,103406.20
2023-05-05T07:56:21.978Z,103410.20
2023-05-05T07:58:52.270Z,103408.20
2023-05-05T08:01:23.397Z,103404.00
2023-05-05T08:03:51.741Z,103409.40
2023-05-05T08:06:23.563Z,103408.20
2023-05-05T08:08:53.498Z,103404.80
2023-05-05T08:11:22.621Z,103401.40
2023-05-05T08:13:52.013Z,103405.40
2023-05-05T08:16:20.765Z,103408.00
2023-05-05T08:18:53.033Z,103395.60
2023-05-05T08:21:21.143Z,103397.40
2023-05-05T08:23:50.459Z,103399.00
2023-05-05T08:26:19.552Z,103393.20
2023-05-05T08:28:51.544Z,103391.60
2023-05-05T08:31:22.343Z,103392.60
2023-05-05T08:33:51.096Z,103396.20
2023-05-05T08:36:19.131Z,103391.80
2023-05-05T08:38:48.658Z,103387.80
2023-05-05T08:41:21.652Z,103383.40
2023-05-05T08:43:50.904Z,103393.80
2023-05-05T08:46:22.200Z,103387.40
2023-05-05T08:48:55.456Z,103389.80
2023-05-05T08:51:33.029Z,103390.00
2023-05-05T08:54:06.314Z,103392.80
2023-05-05T08:56:43.884Z,103386.40
2023-05-05T08:59:14.316Z,103379.80
2023-05-05T09:01:44.451Z,103383.00
2023-05-05T09:04:13.326Z,103380.40
2023-05-05T09:06:42.633Z,103382.80
2023-05-05T09:09:12.982Z,103375.40
2023-05-05T09:11:42.361Z,103381.60
2023-05-05T09:14:11.855Z,103383.20
2023-05-05T09:16:45.639Z,103386.00
2023-05-05T09:19:14.320Z,103380.20
2023-05-05T09:21:49.819Z,103379.60
2023-05-05T09:24:19.958Z,103378.40
2023-05-05T09:26:50.610Z,103382.60
2023-05-05T09:29:49.949Z,103385.60
2023-05-05T09:32:20.205Z,103380.40
2023-05-05T09:35:01.755Z,103379.40
2023-05-05T09:37:31.574Z,103378.40
2023-05-05T09:40:10.063Z,103383.00
2023-05-05T09:42:40.837Z,103373.60
2023-05-05T09:45:33.747Z,103374.20
2023-05-05T09:48:03.078Z,103370.20
2023-05-05T09:50:43.818Z,103368.60
2023-05-05T09:53:12.381Z,103366.40
2023-05-05T09:55:41.024Z,103362.00
2023-05-05T09:58:21.274Z,103369.80
2023-05-05T10:00:57.138Z,103366.20
2023-05-05T10:03:28.386Z,103363.20
2023-05-05T10:06:01.153Z,103359.40
2023-05-05T10:08:32.667Z,103355.00
2023-05-05T10:11:07.449Z,103353.40
2023-05-05T10:13:42.693Z,103353.80
2023-05-05T10:16:13.671Z,103351.40
2023-05-05T10:18:46.926Z,103348.40
2023-05-05T10:21:20.975Z,103347.40
2023-05-05T10:24:02.977Z,103347.20
2023-05-05T10:26:39.059Z,103343.80
2023-05-05T10:29:43.574Z,103340.00
2023-05-05T10:32:51.968Z,103343.20
2023-05-05T10:35:27.820Z,103338.00
2023-05-05T10:38:02.135Z,103339.00
2023-05-05T10:40:35.507Z,103338.40
2023-05-05T10:43:15.552Z,103331.80
2023-05-05T10:45:45.841Z,103334.40
2023-05-05T10:48:25.606Z,103337.60
2023-05-05T10:51:39.553Z,103339.80
2023-05-05T10:54:38.544Z,103332.60
2023-05-05T10:57:12.566Z,103335.40
2023-05-05T10:59:46.236Z,103329.00
2023-05-05T11:02:33.744Z,103329.00
2023-05-05T11:05:25.855Z,103326.00
2023-05-05T11:08:27.738Z,103319.80
2023-05-05T11:10:57.392Z,103318.60
2023-05-05T11:13:28.995Z,103315.80
2023-05-05T11:16:02.130Z,103312.40
2023-05-05T11:18:44.596Z,103315.80
2023-05-05T11:21:19.280Z,103308.80
2023-05-05T11:23:56.137Z,103305.80
2023-05-05T11:26:57.238Z,103301.20
2023-05-05T11:29:25.880Z,103299.00
2023-05-05T11:32:16.334Z,103302.80
2023-05-05T11:34:52.032Z,103299.40
2023-05-05T11:37:31.946Z,103296.20
2023-05-05T11:40:13.720Z,103290.00
2023-05-05T11:42:42.130Z,103292.40
2023-05-05T11:45:25.906Z,103282.00
2023-05-05T11:48:29.146Z,103284.00
2023-05-05T11:50:59.206Z,103282.20
2023-05-05T11:53:28.187Z,103278.60
2023-05-05T11:56:15.726Z,103271.80
2023-05-05T11:58:45.995Z,103263.20
2023-05-05T12:01:15.893Z,103251.60
2023-05-05T12:03:45.802Z,103257.60
2023-05-05T12:06:13.949Z,103263.00
2023-05-05T12:08:45.028Z,103261.40
2023-05-05T12:11:15.478Z,103259.00
2023-05-05T12:13:49.297Z,103258.60
2023-05-05T12:16:20.332Z,103259.60
2023-05-05T12:19:05.950Z,103256.20
2023-05-05T12:21:38.764Z,103253.80
2023-05-05T12:24:14.313Z,103252.20
2023-05-05T12:26:42.683Z,103247.00
2023-05-05T12:29:13.955Z,103243.40
2023-05-05T12:31:44.223Z,103236.80
2023-05-05T12:34:14.584Z,103236.40
2023-05-05T12:36:44.356Z,103234.40
2023-05-05T12:39:13.837Z,103234.00
2023-05-05T12:41:44.039Z,103233.00
2023-05-05T12:44:12.379Z,103230.60
2023-05-05T12:46:48.855Z,103233.20
2023-05-05T12:49:20.660Z,103232.20
2023-05-05T12:51:58.974Z,103229.80
2023-05-05T12:54:31.507Z,103230.00
2023-05-05T12:57:13.835Z,103232.40
2023-05-05T12:59:42.139Z,103222.00
2023-05-05T13:02:14.356Z,103221.40
2023-05-05T13:05:11.752Z,103213.00
2023-05-05T13:07:52.750Z,103210.60
2023-05-05T13:10:22.113Z,103212.20
2023-05-05T13:12:59.096Z,103203.40
2023-05-05T13:15:28.077Z,103195.60
2023-05-05T13:18:04.957Z,103202.20
2023-05-05T13:20:36.014Z,103198.00
2023-05-05T13:23:05.808Z,103188.00
2023-05-05T13:25:33.829Z,103182.40
2023-05-05T13:28:02.915Z,103182.00
2023-05-05T13:30:33.676Z,103182.60
2023-05-05T13:33:06.256Z,103187.00
2023-05-05T13:38:19.076Z,103180.80
2023-05-05T13:40:48.294Z,103181.40
2023-05-05T13:43:16.322Z,103183.60
2023-05-05T13:45:48.360Z,103174.00
2023-05-05T13:48:20.609Z,103166.80
2023-05-05T13:50:53.731Z,103168.80
2023-05-05T13:53:28.885Z,103166.60
2023-05-05T13:56:06.047Z,103163.60
2023-05-05T13:58:34.969Z,103168.20
2023-05-05T14:01:04.829Z,103159.20
2023-05-05T14:03:34.321Z,103159.60
2023-05-05T14:06:02.829Z,103157.60
2023-05-05T14:08:30.723Z,103158.80
2023-05-05T14:11:03.451Z,103161.40
2023-05-05T14:13:31.571Z,103161.20
2023-05-05T14:16:00.928Z,103165.00
2023-05-05T14:18:30.157Z,103154.40
2023-05-05T14:20:58.474Z,103145.20
2023-05-05T14:23:26.562Z,103148.40
2023-05-05T14:25:55.212Z,103142.00
2023-05-05T14:28:28.570Z,103135.40
2023-05-05T14:31:00.479Z,103137.00
2023-05-05T14:33:29.560Z,103133.80
2023-05-05T14:35:57.335Z,103121.80
2023-05-05T14:38:28.794Z,103121.20
2023-05-05T14:40:56.763Z,103120.80
2023-05-05T14:43:26.885Z,103122.80
2023-05-05T14:45:55.331Z,103121.60
2023-05-05T14:48:24.624Z,103106.20
2023-05-05T14:50:57.742Z,103112.00
2023-05-05T14:53:28.897Z,103111.00
2023-05-05T14:55:57.075Z,103109.40
2023-05-05T14:58:26.769Z,103103.00
2023-05-05T15:00:57.008Z,103104.60
2023-05-05T15:03:27.918Z,103106.60
2023-05-05T15:05:58.168Z,103102.80
2023-05-05T15:08:27.477Z,103097.40
2023-05-05T15:10:55.772Z,103105.00
2023-05-05T15:13:24.220Z,103104.20
2023-05-05T15:15:53.076Z,103100.00
2023-05-05T15:18:21.931Z,103098.00
2023-05-05T15:20:52.216Z,103091.40
2023-05-05T15:23:20.289Z,103096.00
2023-05-05T15:25:49.349Z,103093.00
2023-05-05T15:28:18.893Z,103089.80
2023-05-05T15:30:48.698Z,103091.60
2023-05-05T15:33:18.525Z,103086.00
2023-05-05T15:35:48.831Z,103086.20
2023-05-05T15:38:17.410Z,103088.60
2023-05-05T15:40:48.329Z,103082.40
2023-05-05T15:43:22.988Z,103079.80
2023-05-05T15:45:58.796Z,103078.20
2023-05-05T15:48:31.404Z,103079.00
2023-05-05T15:50:59.830Z,103080.40
2023-05-05T15:53:28.650Z,103073.00
2023-05-05T15:55:58.174Z,103075.40
2023-05-05T15:58:26.547Z,103073.40
2023-05-05T16:00:54.423Z,103070.80
2023-05-05T16:03:22.377Z,103072.40
2023-05-05T16:05:50.409Z,103071.20
2023-05-05T16:08:19.660Z,103066.40
2023-05-05T16:10:47.583Z,103061.80
2023-05-05T16:13:20.292Z,103058.20
2023-05-05T16:15:50.109Z,103062.60
2023-05-05T16:18:19.471Z,103059.60
2023-05-05T16:20:48.469Z,103058.20
2023-05-05T16:23:18.630Z,103050.20
2023-05-05T16:25:48.478Z,103051.00
2023-05-05T16:28:16.425Z,103048.60
2023-05-05T16:30:45.825Z,103048.00
2023-05-05T16:33:15.328Z,103046.80
2023-05-05T16:35:48.593Z,103045.00
2023-05-05T16:38:16.726Z,103048.60
2023-05-05T16:40:48.449Z,103044.80
2023-05-05T16:43:16.830Z,103045.60
2023-05-05T16:45:45.309Z,103046.00
2023-05-05T16:48:15.892Z,103045.60
2023-05-05T16:50:54.075Z,103039.00
2023-05-05T16:53:21.832Z,103044.20
2023-05-05T16:55:53.945Z,103041.80
2023-05-05T16:58:23.758Z,103038.80
2023-05-05T17:00:52.689Z,103035.60
2023-05-05T17:03:24.279Z,103034.60
2023-05-05T17:05:53.163Z,103034.20
2023-05-05T17:08:21.023Z,103032.00
2023-05-05T17:10:51.370Z,103030.60
2023-05-05T17:13:20.574Z,103033.00
2023-05-05T17:15:48.591Z,103032.60
2023-05-05T17:18:23.761Z,103030.80
2023-05-05T17:20:52.768Z,103033.80
2023-05-05T17:23:22.510Z,103028.20
2023-05-05T17:25:50.832Z,103033.20
2023-05-05T17:28:20.582Z,103025.00
2023-05-05T17:30:49.168Z,103028.80
2023-05-05T17:33:21.790Z,103022.80
2023-05-05T17:35:50.061Z,103018.80
2023-05-05T17:38:19.319Z,103022.80
2023-05-05T17:40:50.704Z,103019.40
2023-05-05T17:43:20.882Z,103019.40
2023-05-05T17:45:52.874Z,103017.00
2023-05-05T17:48:20.945Z,103014.40
2023-05-05T17:50:50.011Z,103014.80
2023-05-05T17:53:21.429Z,103017.60
2023-05-05T17:55:49.922Z,103017.40
2023-05-05T17:58:19.313Z,103013.40
2023-05-05T18:00:49.888Z,103012.40
2023-05-05T18:03:19.543Z,103015.60
2023-05-05T18:05:49.260Z,103014.80
2023-05-05T18:08:21.814Z,103013.20
2023-05-05T18:10:49.798Z,103015.00
2023-05-05T18:13:31.795Z,103018.20
2023-05-05T18:16:00.107Z,103024.00
2023-05-05T18:18:29.510Z,103023.60
2023-05-05T18:21:02.464Z,103021.60
2023-05-05T18:23:35.027Z,103018.60
2023-05-05T18:26:05.726Z,103022.80
2023-05-05T18:28:34.189Z,103021.20
2023-05-05T18:31:02.524Z,103022.40
2023-05-05T18:33:30.540Z,103024.20
2023-05-05T18:35:59.612Z,103024.00
2023-05-05T18:38:32.677Z,103024.60
2023-05-05T18:41:00.723Z,103028.20
2023-05-05T18:43:31.222Z,103018.80
2023-05-05T18:45:59.449Z,103021.20
2023-05-05T18:48:30.238Z,103019.00
2023-05-05T18:51:07.601Z,103020.40
2023-05-05T18:53:36.916Z,103020.60
2023-05-05T18:56:05.214Z,103019.00
2023-05-05T18:58:34.072Z,103020.40
2023-05-05T19:01:04.022Z,103019.80
2023-05-05T19:03:34.707Z,103019.80
2023-05-05T19:06:08.311Z,103014.20
2023-05-05T19:08:36.409Z,103013.20
2023-05-05T19:11:04.295Z,103014.00
2023-05-05T19:13:33.398Z,103017.00
2023-05-05T19:16:04.553Z,103017.80
2023-05-05T19:18:34.230Z,103015.60
2023-05-05T19:21:03.910Z,103017.00
2023-05-05T19:23:32.307Z,103019.80
2023-05-05T19:26:00.715Z,103017.80
2023-05-05T19:28:30.002Z,103025.60
2023-05-05T19:30:58.987Z,103022.00
2023-05-05T19:33:27.949Z,103023.00
2023-05-05T19:36:02.231Z,103022.60
2023-05-05T19:38:30.289Z,103023.00
2023-05-05T19:41:03.086Z,103024.00
2023-05-05T19:43:35.085Z,103023.80
2023-05-05T19:46:04.647Z,103029.60
2023-05-05T19:48:32.686Z,103027.60
2023-05-05T19:51:01.788Z,103027.00
2023-05-05T19:53:30.336Z,103027.60
2023-05-05T19:56:01.244Z,103035.00
2023-05-05T19:58:30.621Z,103031.40
2023-05-05T20:01:00.065Z,103036.40
2023-05-05T20:03:29.999Z,103041.00
2023-05-05T20:06:07.591Z,103033.80
2023-05-05T20:08:39.822Z,103037.80
2023-05-05T20:11:08.175Z,103035.00
2023-05-05T20:13:40.046Z,103041.40
2023-05-05T20:16:12.491Z,103036.80
2023-05-05T20:18:41.406Z,103043.20
2023-05-05T20:21:14.266Z,103043.40
2023-05-05T20:23:46.894Z,103043.00
2023-05-05T20:26:16.089Z,103045.40
2023-05-05T20:28:47.072Z,103041.60
2023-05-05T20:31:17.709Z,103043.80
2023-05-05T20:33:46.556Z,103045.40
2023-05-05T20:36:16.079Z,103041.60
2023-05-05T20:38:43.965Z,103044.20
2023-05-05T20:41:12.471Z,103043.80
2023-05-05T20:43:40.484Z,103042.60
2023-05-05T20:46:14.319Z,103042.20
2023-05-05T20:48:43.877Z,103047.00
2023-05-05T20:51:13.239Z,103047.40
2023-05-05T20:53:41.507Z,103042.40
2023-05-05T20:56:09.669Z,103043.20
2023-05-05T20:58:39.982Z,103043.40
2023-05-05T21:01:07.932Z,103044.00
2023-05-05T21:03:36.533Z,103045.60
2023-05-05T21:06:05.871Z,103047.20
2023-05-05T21:08:36.556Z,103038.20
2023-05-05T21:11:11.239Z,103041.20
2023-05-05T21:13:39.162Z,103038.40
2023-05-05T21:16:07.612Z,103034.40
2023-05-05T21:18:40.739Z,103037.00
2023-05-05T21:21:09.653Z,103031.80
2023-05-05T21:23:37.668Z,103029.80
2023-05-05T21:26:06.428Z,103029.20
2023-05-05T21:28:36.843Z,103039.20
2023-05-05T21:33:39.757Z,103033.80
2023-05-05T21:36:10.784Z,103036.80
2023-05-05T21:38:39.482Z,103034.80
2023-05-05T21:41:08.652Z,103037.80
2023-05-05T21:43:37.114Z,103037.80
2023-05-05T21:46:10.797Z,103030.60
2023-05-05T21:48:41.762Z,103036.60
2023-05-05T21:51:09.709Z,103036.60
2023-05-05T21:53:42.492Z,103041.40
2023-05-05T21:56:11.953Z,103035.60
2023-05-05T21:58:43.105Z,103037.80
2023-05-05T22:01:12.556Z,103040.20
2023-05-05T22:03:44.129Z,103041.00
2023-05-05T22:06:12.480Z,103037.40
2023-05-05T22:08:40.449Z,103041.40
2023-05-05T22:11:11.050Z,103040.80
2023-05-05T22:13:39.414Z,103040.20
2023-05-05T22:16:09.615Z,103042.00
2023-05-05T22:18:39.198Z,103042.00
2023-05-05T22:21:08.433Z,103039.60
2023-05-05T22:23:41.991Z,103046.20
2023-05-05T22:26:10.674Z,103041.40
2023-05-05T22:28:39.270Z,103041.00
2023-05-05T22:31:09.932Z,103039.60
2023-05-05T22:33:37.870Z,103038.60
2023-05-05T22:36:12.141Z,103044.20
2023-05-05T22:38:40.534Z,103045.20
2023-05-05T22:41:08.716Z,103043.80
2023-05-05T22:43:37.123Z,103043.20
2023-05-05T22:46:06.893Z,103046.20
2023-05-05T22:48:39.626Z,103041.00
2023-05-05T22:51:08.553Z,103037.80
2023-05-05T22:53:39.310Z,103033.80
2023-05-05T22:56:08.443Z,103033.00
2023-05-05T22:58:40.236Z,103029.80
2023-05-05T23:01:08.735Z,103029.20
2023-05-05T23:03:38.764Z,103031.00
2023-05-05T23:06:09.910Z,103029.60
2023-05-05T23:08:39.510Z,103039.40
2023-05-05T23:11:09.971Z,103031.40
2023-05-05T23:13:37.859Z,103032.60
2023-05-05T23:16:06.157Z,103030.20
2023-05-05T23:18:36.077Z,103033.00
2023-05-05T23:21:06.282Z,103026.20
2023-05-05T23:23:34.142Z,103027.00
2023-05-05T23:26:05.364Z,103028.20
2023-05-05T23:28:35.382Z,103029.80
2023-05-05T23:31:05.762Z,103027.20
2023-05-05T23:33:33.693Z,103025.20
2023-05-05T23:36:02.555Z,103028.20
2023-05-05T23:38:31.490Z,103032.20
2023-05-05T23:40:59.927Z,103032.40
2023-05-05T23:43:29.593Z,103032.80
2023-05-05T23:45:58.478Z,103035.80
2023-05-05T23:48:28.977Z,103036.00
2023-05-05T23:50:57.015Z,103036.00
2023-05-05T23:53:25.645Z,103039.20
2023-05-05T23:55:53.484Z,103041.60
2023-05-05T23:58:22.288Z,103042.40
